Time;durP1;ratioP1;P1;durP2;ratioP2;P2;SDS_P1;SDS_P2;PMS_P1;PMS_P2;Temp;Humidity;BMP_temperature;BMP_pressure;BME280_temperature;BME280_humidity;BME280_pressure;Samples;Min_cycle;Max_cycle;Signal;HPM_P1;HPM_P2
2022/05/26 00:00:40;;;;;;;2.28;2.08;;;;;;;;;;4986709;28;20041;-76
2022/05/26 00:03:06;;;;;;;1.70;1.70;;;;;;;;;;4975656;28;20095;-78
2022/05/26 00:05:32;;;;;;;1.80;1.70;;;;;;;;;;4982261;28;20042;-77
2022/05/26 00:07:58;;;;;;;1.15;1.15;;;;;;;;;;4981522;28;20166;-77
2022/05/26 00:10:24;;;;;;;1.65;1.58;;;;;;;;;;4984085;28;20035;-78
2022/05/26 00:12:50;;;;;;;1.73;1.15;;;;;;;;;;4986895;28;20788;-77
2022/05/26 00:15:16;;;;;;;1.27;1.27;;;;;;;;;;4986884;28;20059;-78
2022/05/26 00:17:42;;;;;;;1.60;1.60;;;;;;;;;;4971840;28;20504;-77
2022/05/26 00:20:09;;;;;;;1.63;1.52;;;;;;;;;;4983544;28;20042;-77
2022/05/26 00:22:35;;;;;;;1.52;1.50;;;;;;;;;;4988513;28;20025;-77
2022/05/26 00:25:01;;;;;;;1.50;1.50;;;;;;;;;;4989826;28;20515;-77
2022/05/26 00:27:27;;;;;;;1.50;1.50;;;;;;;;;;4987952;28;20049;-77
2022/05/26 00:29:53;;;;;;;1.48;1.48;;;;;;;;;;4987567;28;20030;-77
2022/05/26 00:32:19;;;;;;;1.50;1.40;;;;;;;;;;4981486;28;20042;-77
2022/05/26 00:34:45;;;;;;;4.07;3.13;;;;;;;;;;4981810;28;20427;-77
2022/05/26 00:37:11;;;;;;;1.50;1.50;;;;;;;;;;4989804;28;20018;-77
2022/05/26 00:39:38;;;;;;;3.83;1.63;;;;;;;;;;4976019;28;20034;-77
2022/05/26 00:42:06;;;;;;;3.00;1.38;;;12.40;86.90;;;;;;4984105;28;20105;-77
2022/05/26 00:44:33;;;;;;;1.63;1.52;;;;;;;;;;4982205;28;20664;-78
2022/05/26 00:46:59;;;;;;;1.50;1.40;;;;;;;;;;4989623;28;20656;-77
2022/05/26 00:49:28;;;;;;;1.55;1.40;;;;;;;;;;4988768;28;20033;-77
2022/05/26 00:51:56;;;;;;;3.35;1.85;;;;;;;;;;4987193;28;20453;-78
2022/05/26 00:54:23;;;;;;;1.35;1.30;;;;;;;;;;4972820;28;20026;-77
2022/05/26 00:56:52;;;;;;;2.33;2.20;;;;;;;;;;4989961;28;20045;-77
2022/05/26 00:59:21;;;;;;;1.45;1.40;;;;;;;;;;4981463;28;20510;-77
2022/05/26 01:01:48;;;;;;;1.20;1.20;;;;;;;;;;4980055;28;20062;-77
2022/05/26 01:04:16;;;;;;;1.35;1.35;;;;;;;;;;4988228;28;20118;-77
2022/05/26 01:06:47;;;;;;;1.40;1.40;;;;;;;;;;4987549;28;20042;-77
2022/05/26 01:09:13;;;;;;;1.42;1.42;;;;;;;;;;4990333;28;20081;-77
2022/05/26 01:11:40;;;;;;;1.42;1.40;;;;;;;;;;4987197;28;20030;-78
2022/05/26 01:14:22;;;;;;;1.50;1.40;;;12.30;88.30;;;;;;4982663;28;20074;-77
2022/05/26 01:17:08;;;;;;;1.70;1.60;;;;;;;;;;4980523;28;20037;-77
2022/05/26 01:19:53;;;;;;;1.88;1.25;;;;;;;;;;4986599;28;20022;-77
2022/05/26 01:22:37;;;;;;;1.30;1.23;;;;;;;;;;4984925;28;20018;-78
2022/05/26 01:25:36;;;;;;;1.58;1.48;;;;;;;;;;4976050;28;20065;-77
2022/05/26 01:28:02;;;;;;;1.30;1.30;;;;;;;;;;5003644;28;20042;-77
2022/05/26 01:30:33;;;;;;;1.30;1.30;;;;;;;;;;5004820;28;20652;-77
2022/05/26 01:33:08;;;;;;;1.35;1.33;;;;;;;;;;4988836;28;20025;-77
2022/05/26 01:35:34;;;;;;;1.52;1.52;;;;;;;;;;5004451;28;20581;-77
2022/05/26 01:38:00;;;;;;;1.38;1.38;;;;;;;;;;5003746;28;20042;-77
2022/05/26 01:40:32;;;;;;;1.83;1.42;;;;;;;;;;5003845;28;20018;-77
2022/05/26 01:43:16;;;;;;;4.40;2.00;;;;;;;;;;5002259;28;20085;-77
2022/05/26 01:45:42;;;;;;;1.50;1.40;;;;;;;;;;5003325;28;20038;-77
2022/05/26 01:48:08;;;;;;;3.95;1.35;;;;;;;;;;5004756;28;20272;-77
2022/05/26 01:50:39;;;;;;;1.52;1.23;;;;;;;;;;5004906;28;20054;-76
2022/05/26 01:53:11;;;;;;;1.48;1.42;;;;;;;;;;5004521;28;20035;-77
2022/05/26 01:55:59;;;;;;;1.35;1.35;;;;;;;;;;5002096;28;20033;-77
2022/05/26 01:58:35;;;;;;;1.30;1.30;;;;;;;;;;5002660;28;20032;-77
2022/05/26 02:01:04;;;;;;;1.30;1.30;;;;;;;;;;5004760;28;20069;-77
2022/05/26 02:03:33;;;;;;;1.15;1.15;;;;;;;;;;4997574;28;20117;-77
2022/05/26 02:06:05;;;;;;;1.40;1.40;;;;;;;;;;4987132;28;20093;-77
2022/05/26 02:08:37;;;;;;;1.70;1.23;;;;;;;;;;4988033;28;20129;-77
2022/05/26 02:11:08;;;;;;;1.67;1.58;;;;;;;;;;4982133;28;20038;-77
2022/05/26 02:13:37;;;;;;;1.92;1.83;;;;;;;;;;4980119;28;20117;-77
2022/05/26 02:16:08;;;;;;;1.73;1.63;;;;;;;;;;4988114;28;20030;-77
2022/05/26 02:18:37;;;;;;;1.92;1.58;;;;;;;;;;4979565;28;20029;-77
2022/05/26 02:21:14;;;;;;;1.63;1.52;;;;;;;;;;4988821;28;20104;-77
2022/05/26 02:23:59;;;;;;;1.30;1.30;;;;;;;;;;4987186;28;20056;-77
2022/05/26 02:26:25;;;;;;;2.15;1.50;;;;;;;;;;4979392;28;20042;-77
2022/05/26 02:31:37;;;;;;;1.40;1.40;;;;;;;;;;4985657;28;20033;-77
2022/05/26 02:34:04;;;;;;;1.15;1.15;;;11.60;90.70;;;;;;4975660;28;20043;-77
2022/05/26 02:36:31;;;;;;;2.70;1.43;;;;;;;;;;4987847;28;20022;-77
2022/05/26 02:38:57;;;;;;;1.40;1.40;;;;;;;;;;4983467;28;20014;-78
2022/05/26 02:41:24;;;;;;;1.70;1.60;;;;;;;;;;4984994;28;20538;-78
2022/05/26 02:43:51;;;;;;;1.60;1.50;;;;;;;;;;4987114;28;20026;-77
2022/05/26 02:46:23;;;;;;;1.92;1.73;;;;;;;;;;4987623;28;20034;-77
2022/05/26 02:49:08;;;;;;;1.45;1.35;;;;;;;;;;4971629;28;20561;-77
2022/05/26 02:51:42;;;;;;;1.70;1.60;;;;;;;;;;4977501;28;20562;-77
2022/05/26 02:54:14;;;;;;;1.67;1.58;;;;;;;;;;4979015;28;20030;-77
2022/05/26 02:56:46;;;;;;;1.40;1.40;;;;;;;;;;4978184;28;20113;-78
2022/05/26 02:59:31;;;;;;;3.38;1.58;;;;;;;;;;4987021;28;20033;-77
2022/05/26 03:02:03;;;;;;;1.65;1.55;;;11.50;90.30;;;;;;4976146;28;20384;-77
2022/05/26 03:04:32;;;;;;;1.77;1.67;;;;;;;;;;4977225;28;20101;-77
2022/05/26 03:07:05;;;;;;;4.93;1.80;;;;;;;;;;4987365;28;20515;-77
2022/05/26 03:09:35;;;;;;;1.38;1.38;;;;;;;;;;4973868;28;20029;-77
2022/05/26 03:12:01;;;;;;;1.67;1.58;;;;;;;;;;4987064;28;20530;-77
2022/05/26 03:14:27;;;;;;;1.48;1.38;;;;;;;;;;4975215;28;20046;-77
2022/05/26 03:16:53;;;;;;;1.80;1.70;;;;;;;;;;4983671;28;20500;-78
2022/05/26 03:19:19;;;;;;;1.35;1.25;;;;;;;;;;4987450;28;20624;-76
2022/05/26 03:21:46;;;;;;;1.65;1.55;;;;;;;;;;4986634;28;20129;-78
2022/05/26 03:24:12;;;;;;;1.27;1.27;;;;;;;;;;4969185;28;20035;-77
2022/05/26 03:26:38;;;;;;;2.58;1.35;;;;;;;;;;4986313;28;20030;-78
2022/05/26 03:29:06;;;;;;;2.75;1.63;;;;;;;;;;4977190;28;20041;-77
2022/05/26 03:31:33;;;;;;;1.05;1.05;;;;;;;;;;4976115;28;20038;-78
2022/05/26 03:42:13;;;;;;;1.48;1.48;;;;;;;;;;4986144;28;20061;-77
2022/05/26 03:44:39;;;;;;;1.30;1.25;;;;;;;;;;4976094;28;20116;-77
2022/05/26 03:47:06;;;;;;;2.55;1.63;;;;;;;;;;4981146;28;20032;-77
2022/05/26 03:49:32;;;;;;;1.40;1.30;;;;;;;;;;4980997;28;20400;-77
2022/05/26 03:51:58;;;;;;;1.55;1.45;;;;;;;;;;4979926;28;20664;-77
2022/05/26 03:54:25;;;;;;;1.40;1.30;;;;;;;;;;4988769;28;20027;-77
2022/05/26 03:56:51;;;;;;;1.40;1.30;;;;;;;;;;4985113;28;20025;-77
2022/05/26 03:59:17;;;;;;;3.47;1.42;;;;;;;;;;4982683;28;20407;-77
2022/05/26 04:01:43;;;;;;;2.78;2.58;;;;;;;;;;4982431;28;20043;-78
2022/05/26 04:04:09;;;;;;;1.25;1.25;;;;;;;;;;4990782;28;20039;-77
2022/05/26 04:06:36;;;;;;;1.58;1.48;;;;;;;;;;4977398;28;20073;-77
2022/05/26 04:09:03;;;;;;;1.27;1.27;;;;;;;;;;4989581;28;20496;-77
2022/05/26 04:11:29;;;;;;;1.70;1.60;;;;;;;;;;4983948;28;20121;-77
2022/05/26 04:13:55;;;;;;;1.50;1.40;;;;;;;;;;4987277;28;20122;-77
2022/05/26 04:16:21;;;;;;;3.83;1.70;;;;;;;;;;4990675;28;20105;-77
2022/05/26 04:18:47;;;;;;;1.60;1.50;;;;;;;;;;4989924;28;20373;-77
2022/05/26 04:21:14;;;;;;;1.70;1.60;;;11.00;91.20;;;;;;4975659;28;20588;-77
2022/05/26 04:23:40;;;;;;;1.38;1.38;;;;;;;;;;4989748;28;20039;-77
2022/05/26 04:26:07;;;;;;;1.60;1.60;;;;;;;;;;4979635;28;20038;-78
2022/05/26 04:28:34;;;;;;;1.77;1.67;;;11.10;91.30;;;;;;4984305;28;20109;-77
2022/05/26 04:31:00;;;;;;;1.50;1.40;;;;;;;;;;4989696;28;20034;-77
2022/05/26 04:33:26;;;;;;;1.90;1.80;;;;;;;;;;4986342;28;20446;-77
2022/05/26 04:35:52;;;;;;;1.55;1.50;;;;;;;;;;4991051;28;20049;-78
2022/05/26 04:38:19;;;;;;;1.40;1.30;;;;;;;;;;4989766;28;20049;-77
2022/05/26 04:40:45;;;;;;;1.33;1.33;;;;;;;;;;4986522;28;20381;-78
2022/05/26 04:43:11;;;;;;;1.65;1.58;;;;;;;;;;4978375;28;20140;-78
2022/05/26 04:45:37;;;;;;;4.88;1.40;;;;;;;;;;4989690;28;20086;-78
2022/05/26 04:48:04;;;;;;;1.52;1.42;;;;;;;;;;4982639;28;20136;-77
2022/05/26 04:50:30;;;;;;;1.33;1.20;;;;;;;;;;4989162;28;20034;-78
2022/05/26 04:52:56;;;;;;;1.40;1.40;;;11.50;95.70;;;;;;4988462;28;20033;-77
2022/05/26 04:55:22;;;;;;;1.73;1.63;;;;;;;;;;4985027;28;20023;-77
2022/05/26 04:57:48;;;;;;;1.65;1.55;;;;;;;;;;4981008;28;20117;-77
2022/05/26 05:00:16;;;;;;;1.60;1.50;;;;;;;;;;4990763;28;20022;-77
2022/05/26 05:02:43;;;;;;;1.60;1.55;;;;;;;;;;4978323;28;20045;-77
2022/05/26 05:05:10;;;;;;;2.17;1.70;;;;;;;;;;4986338;28;20064;-77
2022/05/26 05:07:36;;;;;;;2.53;1.70;;;;;;;;;;4987307;28;20093;-77
2022/05/26 05:10:03;;;;;;;3.92;1.92;;;;;;;;;;4986583;28;20106;-77
2022/05/26 05:12:29;;;;;;;2.13;1.70;;;12.10;93.80;;;;;;4971926;28;20031;-77
2022/05/26 05:14:56;;;;;;;1.38;1.27;;;12.10;90.50;;;;;;4990183;28;20407;-78
2022/05/26 05:17:23;;;;;;;2.92;1.40;;;;;;;;;;4987269;28;20105;-78
2022/05/26 05:19:49;;;;;;;1.73;1.63;;;;;;;;;;4988817;28;20088;-78
2022/05/26 05:22:28;;;;;;;2.08;1.88;;;;;;;;;;4989679;28;20162;-79
2022/05/26 05:24:57;;;;;;;1.63;1.52;;;;;;;;;;4980797;28;20041;-78
2022/05/26 05:27:23;;;;;;;1.60;1.50;;;;;;;;;;4987682;28;20026;-78
2022/05/26 05:29:50;;;;;;;1.52;1.42;;;;;;;;;;4982674;28;20436;-77
2022/05/26 05:32:20;;;;;;;2.50;2.30;;;;;;;;;;4981233;28;20026;-77
2022/05/26 05:34:48;;;;;;;3.42;1.55;;;;;;;;;;4980774;28;20022;-77
2022/05/26 05:37:14;;;;;;;1.92;1.83;;;12.80;96.50;;;;;;4986069;28;20060;-77
2022/05/26 05:39:40;;;;;;;1.75;1.65;;;;;;;;;;4974679;28;20034;-77
2022/05/26 05:42:06;;;;;;;1.90;1.80;;;;;;;;;;4983654;28;20042;-77
2022/05/26 05:44:33;;;;;;;1.67;1.40;;;;;;;;;;4979764;28;20042;-78
2022/05/26 05:46:59;;;;;;;2.33;1.50;;;;;;;;;;4984779;28;20033;-78
2022/05/26 05:49:29;;;;;;;1.80;1.70;;;;;;;;;;4988303;28;20450;-78
2022/05/26 05:51:56;;;;;;;1.88;1.77;;;;;;;;;;4986611;28;20029;-78
2022/05/26 05:54:22;;;;;;;1.60;1.50;;;;;;;;;;4970422;28;20077;-78
2022/05/26 05:56:48;;;;;;;1.20;1.17;;;;;;;;;;4988799;28;20037;-78
2022/05/26 05:59:15;;;;;;;2.10;2.00;;;;;;;;;;4981029;28;20447;-78
2022/05/26 06:01:41;;;;;;;1.65;1.55;;;;;;;;;;4977380;28;20062;-78
2022/05/26 06:04:07;;;;;;;1.92;1.80;;;;;;;;;;4987900;28;20093;-78
2022/05/26 06:06:42;;;;;;;2.03;1.92;;;;;;;;;;4983881;28;20049;-78
2022/05/26 06:09:08;;;;;;;3.80;2.17;;;;;;;;;;4989304;28;20120;-77
2022/05/26 06:11:34;;;;;;;1.90;1.70;;;;;;;;;;4987663;28;20033;-78
2022/05/26 06:14:01;;;;;;;1.80;1.70;;;;;;;;;;4982630;28;20110;-78
2022/05/26 06:16:28;;;;;;;2.42;2.22;;;;;;;;;;4976944;28;20499;-78
2022/05/26 06:18:54;;;;;;;2.70;2.60;;;;;;;;;;4987412;28;20041;-77
2022/05/26 06:21:20;;;;;;;3.33;2.65;;;15.40;93.40;;;;;;4986528;28;20030;-78
2022/05/26 06:23:46;;;;;;;3.28;3.08;;;;;;;;;;4982935;28;20093;-77
2022/05/26 06:26:12;;;;;;;3.40;3.20;;;;;;;;;;4985952;28;20073;-78
2022/05/26 06:31:23;;;;;;;3.63;3.42;;;;;;;;;;4976560;28;20084;-78
2022/05/26 06:39:09;;;;;;;3.92;3.63;;;;;;;;;;4983123;28;20034;-78
2022/05/26 06:44:20;;;;;;;1.10;0.32;;;;;;;;;;4984731;28;20058;-77
2022/05/26 06:46:46;;;;;;;5.05;0.30;;;;;;;;;;4987011;28;20030;-78
2022/05/26 06:49:13;;;;;;;1.98;0.50;;;;;;;;;;4987497;28;20066;-78
2022/05/26 06:51:39;;;;;;;1.38;0.20;;;25.30;71.50;;;;;;4971914;28;20096;-78
2022/05/26 06:54:08;;;;;;;0.63;0.20;;;26.00;49.00;;;;;;4988652;28;20066;-78
2022/05/26 06:56:34;;;;;;;0.43;0.20;;;;;;;;;;4978699;28;20041;-78
2022/05/26 06:59:00;;;;;;;0.40;0.17;;;27.50;63.60;;;;;;4979937;28;20027;-79
2022/05/26 07:01:26;;;;;;;;;;;27.40;42.00;;;;;;4986919;28;20023;-79
2022/05/26 07:03:52;;;;;;;3.13;0.40;;;;;;;;;;4984535;28;20579;-79
2022/05/26 07:06:23;;;;;;;0.50;0.28;;;29.80;40.20;;;;;;4988326;28;20053;-79
2022/05/26 07:08:50;;;;;;;3.20;0.40;;;;;;;;;;4986834;28;20034;-78
2022/05/26 07:11:16;;;;;;;1.50;0.45;;;;;;;;;;4975537;28;20031;-79
2022/05/26 07:13:42;;;;;;;2.05;0.25;;;31.10;48.80;;;;;;4982456;28;20819;-79
2022/05/26 07:16:10;;;;;;;0.30;0.10;;;;;;;;;;4985919;28;20482;-80
2022/05/26 07:18:36;;;;;;;0.20;0.13;;;31.40;37.00;;;;;;4978958;28;20396;-78
2022/05/26 07:21:06;;;;;;;0.10;0.10;;;31.70;37.40;;;;;;4983872;28;20037;-78
2022/05/26 07:23:32;;;;;;;2.50;0.30;;;;;;;;;;4986050;28;20531;-80
2022/05/26 07:25:58;;;;;;;0.50;0.10;;;;;;;;;;4981797;28;20507;-79
2022/05/26 07:28:25;;;;;;;1.50;0.20;;;;;;;;;;4977204;28;20034;-78
2022/05/26 07:30:53;;;;;;;1.42;0.52;;;30.30;45.50;;;;;;4990774;28;20084;-79
2022/05/26 07:33:19;;;;;;;0.65;0.20;;;30.50;38.00;;;;;;4975893;28;20022;-79
2022/05/26 07:35:46;;;;;;;0.60;0.10;;;;;;;;;;4982657;28;20025;-79
2022/05/26 07:41:17;;;;;;;1.58;0.22;;;;;;;;;;4988385;28;20092;-79
2022/05/26 07:43:43;;;;;;;6.90;0.82;;;;;;;;;;4990696;28;20092;-78
2022/05/26 07:46:10;;;;;;;3.35;0.22;;;;;;;;;;4990907;28;20042;-79
2022/05/26 07:48:37;;;;;;;4.78;0.50;;;;;;;;;;4974729;28;20166;-79
2022/05/26 07:51:03;;;;;;;2.20;0.37;;;;;;;;;;4994684;28;20026;-78
2022/05/26 07:53:29;;;;;;;0.30;0.28;;;;;;;;;;4981330;28;20443;-78
2022/05/26 07:55:55;;;;;;;3.58;1.30;;;;;;;;;;4986022;28;20054;-79
2022/05/26 07:58:21;;;;;;;3.28;0.85;;;;;;;;;;4982021;28;20034;-79
2022/05/26 08:00:47;;;;;;;1.10;1.10;;;21.40;61.90;;;;;;4987982;28;20026;-78
2022/05/26 08:03:13;;;;;;;1.45;1.40;;;;;;;;;;4976861;28;20042;-78
2022/05/26 08:05:39;;;;;;;2.10;1.98;;;;;;;;;;4989043;28;20089;-78
2022/05/26 08:08:06;;;;;;;2.30;2.00;;;;;;;;;;4979762;28;20082;-78
2022/05/26 08:10:32;;;;;;;0.10;0.10;;;;;;;;;;4981471;28;20033;-77
2022/05/26 08:12:58;;;;;;;0.98;0.25;;;;;;;;;;4985507;28;20061;-78
2022/05/26 08:15:24;;;;;;;4.07;0.25;;;;;;;;;;4983790;28;20046;-78
2022/05/26 08:17:50;;;;;;;0.85;0.40;;;;;;;;;;4990957;28;20034;-79
2022/05/26 08:20:17;;;;;;;0.40;0.32;;;;;;;;;;4989893;28;20106;-78
2022/05/26 08:22:43;;;;;;;0.63;0.22;;;;;;;;;;4983015;28;20034;-78
2022/05/26 08:25:10;;;;;;;1.38;0.65;;;;;;;;;;4977235;28;20035;-78
2022/05/26 08:27:36;;;;;;;2.80;1.08;;;;;;;;;;4989822;28;20045;-78
2022/05/26 08:30:02;;;;;;;1.25;1.25;;;;;;;;;;4979740;28;20064;-79
2022/05/26 08:32:28;;;;;;;4.30;2.65;;;;;;;;;;4982107;28;20026;-78
2022/05/26 08:34:58;;;;;;;2.20;2.10;;;;;;;;;;4985615;28;20031;-79
2022/05/26 08:37:24;;;;;;;3.00;2.90;;;;;;;;;;4988163;28;20447;-79
2022/05/26 08:39:50;;;;;;;3.30;2.35;;;;;;;;;;4988786;28;20077;-79
2022/05/26 08:42:24;;;;;;;0.77;0.73;;;;;;;;;;4990534;28;20050;-79
2022/05/26 08:44:54;;;;;;;0.77;0.75;;;;;;;;;;4974211;28;20031;-79
2022/05/26 08:47:21;;;;;;;4.28;1.00;;;;;;;;;;4985926;28;20038;-79
2022/05/26 08:49:52;;;;;;;0.30;0.20;;;22.70;70.30;;;;;;4985825;28;20377;-78
2022/05/26 08:52:23;;;;;;;0.90;0.47;;;;;;;;;;4985283;28;20038;-78
2022/05/26 08:54:52;;;;;;;0.43;0.40;;;;;;;;;;4988818;28;20061;-78
2022/05/26 08:57:22;;;;;;;3.70;0.55;;;;;;;;;;4986511;28;20101;-78
2022/05/26 08:59:48;;;;;;;2.33;0.85;;;;;;;;;;4977978;28;20121;-79
2022/05/26 09:02:20;;;;;;;4.25;0.40;;;;;;;;;;4985189;28;20030;-78
2022/05/26 09:04:46;;;;;;;2.72;0.30;;;;;;;;;;4985663;28;20042;-79
2022/05/26 09:12:57;;;;;;;0.82;0.40;;;;;;;;;;4982747;28;20036;-78
2022/05/26 09:15:32;;;;;;;0.77;0.45;;;22.20;50.80;;;;;;4987522;28;20130;-78
2022/05/26 09:17:59;;;;;;;2.08;0.90;;;;;;;;;;4987258;28;20056;-78
2022/05/26 09:20:27;;;;;;;1.57;1.30;;;22.10;52.70;;;;;;4976047;28;20035;-78
2022/05/26 09:22:53;;;;;;;0.60;0.60;;;;;;;;;;4982108;28;20360;-78
2022/05/26 09:25:43;;;;;;;1.05;0.70;;;;;;;;;;4984734;28;20065;-79
2022/05/26 09:28:10;;;;;;;0.95;0.57;;;22.80;49.20;;;;;;4978982;28;20030;-79
2022/05/26 09:30:36;;;;;;;1.00;0.50;;;;;;;;;;4984771;28;20018;-79
2022/05/26 09:33:16;;;;;;;2.47;0.98;;;;;;;;;;4986520;28;20588;-78
2022/05/26 09:35:42;;;;;;;0.60;0.55;;;;;;;;;;4988643;28;20073;-79
2022/05/26 09:38:14;;;;;;;2.63;0.60;;;;;;;;;;4987680;28;20754;-78
2022/05/26 09:40:45;;;;;;;1.00;0.60;;;;;;;;;;4985897;28;20114;-79
2022/05/26 09:43:17;;;;;;;1.20;0.90;;;;;;;;;;4977502;28;20451;-78
2022/05/26 09:45:54;;;;;;;1.50;0.80;;;;;;;;;;4988201;28;20137;-79
2022/05/26 09:48:21;;;;;;;;;;;;;;;;;;4985721;28;20027;-78
2022/05/26 09:50:52;;;;;;;1.30;1.10;;;;;;;;;;4984008;28;19910;-78
2022/05/26 09:53:38;;;;;;;4.82;1.30;;;;;;;;;;4987186;28;20030;-78
2022/05/26 09:56:05;;;;;;;1.20;1.20;;;;;;;;;;4982048;28;20043;-78
2022/05/26 09:58:31;;;;;;;1.45;1.35;;;;;;;;;;4985430;28;20031;-80
2022/05/26 10:01:01;;;;;;;2.08;1.80;;;;;;;;;;4987514;28;20026;-79
2022/05/26 10:03:33;;;;;;;1.70;1.60;;;;;;;;;;4976589;28;20026;-79
2022/05/26 10:06:24;;;;;;;2.00;1.80;;;21.30;54.10;;;;;;4980687;28;20129;-79
2022/05/26 10:08:56;;;;;;;2.85;2.65;;;;;;;;;;4978930;28;20036;-79
2022/05/26 10:11:40;;;;;;;4.88;2.33;;;20.90;55.50;;;;;;4985973;28;20097;-79
2022/05/26 10:14:09;;;;;;;2.00;1.90;;;;;;;;;;4987753;28;20053;-78
2022/05/26 10:16:38;;;;;;;3.20;2.28;;;;;;;;;;4981881;28;20714;-79
2022/05/26 10:19:22;;;;;;;2.25;2.15;;;;;;;;;;4974307;28;20647;-79
2022/05/26 10:21:51;;;;;;;2.30;2.20;;;;;;;;;;4979520;28;20041;-79
2022/05/26 10:24:33;;;;;;;3.88;2.50;;;;;;;;;;4975746;28;20022;-78
2022/05/26 10:27:17;;;;;;;2.40;2.30;;;;;;;;;;4987216;28;20046;-80
2022/05/26 10:29:49;;;;;;;2.40;2.30;;;;;;;;;;4980687;28;20062;-78
2022/05/26 10:32:21;;;;;;;5.68;2.50;;;;;;;;;;4980882;28;20027;-79
2022/05/26 10:34:59;;;;;;;5.75;2.65;;;;;;;;;;4978849;28;20034;-79
2022/05/26 10:37:42;;;;;;;2.85;2.75;;;;;;;;;;4986733;28;20061;-78
2022/05/26 10:40:14;;;;;;;3.13;2.53;;;;;;;;;;4977454;28;20077;-78
2022/05/26 10:42:48;;;;;;;3.03;2.83;;;;;;;;;;4981728;28;20174;-78
2022/05/26 10:45:32;;;;;;;6.18;3.58;;;;;;;;;;4981883;28;20053;-78
2022/05/26 10:48:05;;;;;;;2.65;2.55;;;;;;;;;;4984900;28;20516;-78
2022/05/26 10:50:43;;;;;;;2.53;2.42;;;;;;;;;;4987165;28;20030;-79
2022/05/26 10:53:18;;;;;;;2.53;2.42;;;;;;;;;;4980796;28;20061;-79
2022/05/26 10:56:02;;;;;;;5.22;2.90;;;;;;;;;;4975757;28;20031;-78
2022/05/26 10:58:42;;;;;;;4.80;3.40;;;;;;;;;;4984957;28;20105;-78
2022/05/26 11:01:14;;;;;;;2.33;2.00;;;;;;;;;;4979179;28;20041;-78
2022/05/26 11:03:46;;;;;;;1.33;1.33;;;;;;;;;;4983433;28;20045;-78
2022/05/26 11:06:18;;;;;;;3.33;1.58;;;;;;;;;;4984129;28;20046;-79
2022/05/26 11:08:48;;;;;;;2.25;1.80;;;;;;;;;;4987295;28;20026;-78
2022/05/26 11:11:23;;;;;;;0.80;0.80;;;;;;;;;;4985334;28;20651;-78
2022/05/26 11:13:56;;;;;;;3.28;1.17;;;;;;;;;;4983392;28;20031;-78
2022/05/26 11:19:34;;;;;;;0.63;0.57;;;;;;;;;;4986673;28;20522;-79
2022/05/26 11:22:01;;;;;;;0.63;0.63;;;;;;;;;;4986921;28;20026;-78
2022/05/26 11:24:27;;;;;;;5.82;1.95;;;;;;;;;;4986779;28;20061;-78
2022/05/26 11:27:06;;;;;;;0.63;0.43;;;;;;;;;;4989570;28;20040;-79
2022/05/26 11:29:46;;;;;;;2.63;0.90;;;;;;;;;;4977544;28;20031;-78
2022/05/26 11:37:59;;;;;;;3.22;0.40;;;22.80;52.90;;;;;;4982720;28;20041;-78
2022/05/26 11:40:31;;;;;;;0.40;0.30;;;;;;;;;;4975887;28;20035;-79
2022/05/26 11:42:58;;;;;;;1.20;0.50;;;;;;;;;;4982122;28;20047;-79
2022/05/26 11:45:29;;;;;;;1.92;0.50;;;;;;;;;;4987168;28;20034;-78
2022/05/26 11:47:59;;;;;;;3.20;0.50;;;22.50;54.70;;;;;;4986959;28;20439;-78
2022/05/26 11:50:51;;;;;;;1.10;0.60;;;;;;;;;;4978240;28;20038;-78
2022/05/26 11:53:36;;;;;;;0.40;0.40;;;;;;;;;;4982770;28;20033;-78
2022/05/26 11:56:22;;;;;;;0.65;0.60;;;;;;;;;;4981171;28;20038;-78
2022/05/26 11:59:08;;;;;;;3.83;0.70;;;;;;;;;;4984846;28;20460;-79
2022/05/26 12:01:36;;;;;;;1.05;0.60;;;;;;;;;;4982454;28;20384;-78
2022/05/26 12:04:02;;;;;;;0.88;0.50;;;;;;;;;;4986295;28;20030;-78
2022/05/26 12:06:37;;;;;;;2.83;0.73;;;22.40;55.90;;;;;;4971591;28;20121;-78
2022/05/26 12:09:06;;;;;;;1.08;0.60;;;;;;;;;;4986268;28;20055;-78
2022/05/26 12:11:51;;;;;;;16.85;1.60;;;;;;;;;;4981929;28;20077;-78
2022/05/26 12:14:22;;;;;;;0.85;0.40;;;;;;;;;;4980953;28;20035;-78
2022/05/26 12:16:48;;;;;;;0.95;0.52;;;;;;;;;;4982705;28;20031;-79
2022/05/26 12:19:34;;;;;;;1.02;0.75;;;;;;;;;;4982987;28;20027;-78
2022/05/26 12:22:15;;;;;;;0.35;0.30;;;;;;;;;;4975951;28;20022;-79
2022/05/26 12:24:48;;;;;;;0.73;0.40;;;;;;;;;;4989496;28;20052;-79
2022/05/26 12:27:14;;;;;;;1.20;0.38;;;;;;;;;;4972034;28;20060;-79
2022/05/26 12:29:51;;;;;;;1.38;0.50;;;23.10;52.40;;;;;;4989449;28;20057;-78
2022/05/26 12:32:34;;;;;;;1.05;0.85;;;22.80;62.80;;;;;;4979149;28;20443;-78
2022/05/26 12:35:24;;;;;;;0.57;0.45;;;22.40;54.70;;;;;;4987035;28;20483;-78
2022/05/26 12:37:58;;;;;;;1.80;0.82;;;;;;;;;;4986076;28;20050;-78
2022/05/26 12:40:29;;;;;;;2.47;0.70;;;;;;;;;;4989395;28;20398;-78
2022/05/26 12:43:46;;;;;;;1.65;0.60;;;22.50;56.30;;;;;;4989934;28;20141;-78
2022/05/26 12:46:32;;;;;;;3.60;1.50;;;;;;;;;;5023493;28;20519;-79
2022/05/26 12:49:26;;;;;;;0.45;0.45;;;22.30;57.80;;;;;;5025802;28;20034;-78
2022/05/26 12:52:12;;;;;;;2.17;0.98;;;22.30;56.50;;;;;;5025507;28;20030;-78
2022/05/26 12:54:41;;;;;;;1.00;0.95;;;;;;;;;;5023719;28;20615;-79
2022/05/26 12:57:09;;;;;;;2.13;0.65;;;;;;;;;;5017542;28;20029;-78
2022/05/26 12:59:35;;;;;;;0.68;0.52;;;;;;;;;;5023155;28;20044;-78
2022/05/26 13:02:02;;;;;;;1.48;0.80;;;;;;;;;;5024435;28;20112;-78
2022/05/26 13:04:34;;;;;;;0.85;0.60;;;;;;;;;;5023386;28;20518;-78
2022/05/26 13:07:04;;;;;;;1.65;0.40;;;;;;;;;;5013003;28;20120;-79
2022/05/26 13:09:33;;;;;;;1.17;0.50;;;;;;;;;;5025103;28;20029;-79
2022/05/26 13:12:00;;;;;;;0.68;0.50;;;;;;;;;;5025853;28;20025;-78
2022/05/26 13:14:34;;;;;;;0.50;0.50;;;;;;;;;;5022715;28;20037;-78
2022/05/26 13:17:18;;;;;;;0.50;0.50;;;;;;;;;;5023364;28;20037;-78
2022/05/26 13:19:44;;;;;;;4.88;0.68;;;;;;;;;;5022595;28;20038;-78
2022/05/26 13:22:12;;;;;;;1.98;0.93;;;;;;;;;;5002100;28;20054;-78
2022/05/26 13:24:52;;;;;;;0.55;0.55;;;22.20;56.10;;;;;;4987779;28;20050;-78
2022/05/26 13:27:18;;;;;;;1.48;0.60;;;;;;;;;;4987033;28;20026;-78
2022/05/26 13:29:47;;;;;;;0.57;0.57;;;;;;;;;;4988727;28;20061;-79
2022/05/26 13:35:10;;;;;;;4.40;1.25;;;;;;;;;;4985435;28;20050;-78
2022/05/26 13:37:41;;;;;;;1.48;1.23;;;;;;;;;;4985785;28;20022;-78
2022/05/26 13:40:07;;;;;;;1.58;1.10;;;;;;;;;;4988764;28;20041;-78
2022/05/26 13:42:34;;;;;;;2.90;0.73;;;;;;;;;;4989045;28;20069;-78
2022/05/26 13:45:00;;;;;;;2.15;0.73;;;;;;;;;;4972770;28;20532;-78
2022/05/26 13:47:26;;;;;;;0.73;0.60;;;;;;;;;;4986272;28;20049;-78
2022/05/26 13:50:01;;;;;;;1.15;1.05;;;;;;;;;;4984378;28;20022;-78
2022/05/26 13:52:28;;;;;;;3.15;0.77;;;;;;;;;;4985008;28;20028;-78
2022/05/26 13:54:59;;;;;;;0.85;0.60;;;;;;;;;;4988673;28;20061;-78
2022/05/26 13:57:38;;;;;;;0.60;0.60;;;22.30;56.90;;;;;;4987391;28;20030;-78
2022/05/26 14:00:06;;;;;;;0.45;0.40;;;;;;;;;;4976035;28;20039;-79
2022/05/26 14:02:35;;;;;;;1.50;0.50;;;22.70;55.30;;;;;;4986359;28;20030;-79
2022/05/26 14:05:00;;;;;;;0.52;0.45;;;;;;;;;;4983745;28;20503;-79
2022/05/26 14:07:31;;;;;;;0.80;0.43;;;;;;;;;;4980562;28;20030;-79
2022/05/26 14:10:15;;;;;;;2.00;0.45;;;23.30;52.90;;;;;;4984264;28;20033;-78
2022/05/26 14:12:41;;;;;;;2.67;0.60;;;;;;;;;;4981895;28;20042;-78
2022/05/26 14:15:08;;;;;;;0.43;0.33;;;;;;;;;;4989588;28;20102;-78
2022/05/26 14:17:42;;;;;;;0.80;0.50;;;23.10;54.60;;;;;;4988115;28;20258;-78
2022/05/26 14:20:11;;;;;;;0.75;0.38;;;23.30;54.30;;;;;;4984318;28;20088;-79
2022/05/26 14:22:37;;;;;;;3.10;0.43;;;;;;;;;;4987721;28;20033;-78
2022/05/26 14:25:03;;;;;;;0.85;0.50;;;;;;;;;;4988195;28;20060;-78
2022/05/26 14:27:50;;;;;;;1.85;0.70;;;;;;;;;;4978256;28;20014;-78
2022/05/26 14:30:28;;;;;;;0.80;0.80;;;;;;;;;;4987021;28;20034;-79
2022/05/26 14:32:54;;;;;;;1.65;0.68;;;;;;;;;;4981408;28;20068;-78
2022/05/26 14:35:20;;;;;;;14.18;0.80;;;;;;;;;;4980302;28;20504;-78
2022/05/26 14:37:47;;;;;;;5.05;1.05;;;;;;;;;;4978978;28;20385;-78
2022/05/26 14:40:14;;;;;;;5.20;2.90;;;;;;;;;;4987711;28;20022;-78
2022/05/26 14:42:42;;;;;;;0.85;0.60;;;;;;;;;;4973883;28;20047;-78
2022/05/26 14:45:11;;;;;;;1.10;0.65;;;22.30;56.10;;;;;;4982254;28;20828;-78
2022/05/26 14:47:38;;;;;;;2.00;1.27;;;;;;;;;;4980538;28;20041;-79
2022/05/26 14:50:05;;;;;;;0.70;0.70;;;;;;;;;;4986973;28;20026;-78
2022/05/26 14:52:31;;;;;;;2.22;1.08;;;;;;;;;;4986748;28;20389;-79
2022/05/26 14:57:43;;;;;;;1.85;0.85;;;;;;;;;;4986614;28;20088;-78
2022/05/26 15:00:11;;;;;;;3.47;0.70;;;;;;;;;;4988619;28;20038;-78
2022/05/26 15:02:37;;;;;;;1.35;0.90;;;;;;;;;;4977732;28;20039;-79
2022/05/26 15:05:05;;;;;;;2.47;0.80;;;;;;;;;;4977838;28;20820;-78
2022/05/26 15:07:31;;;;;;;2.65;1.27;;;;;;;;;;4986576;28;20014;-78
2022/05/26 15:09:57;;;;;;;0.88;0.88;;;;;;;;;;4983995;28;20033;-78
2022/05/26 15:12:23;;;;;;;1.15;0.80;;;;;;;;;;4988178;28;20026;-78
2022/05/26 15:14:49;;;;;;;1.55;0.80;;;;;;;;;;4985869;28;20022;-78
2022/05/26 15:17:17;;;;;;;1.05;0.77;;;;;;;;;;4984516;28;20030;-78
2022/05/26 15:19:50;;;;;;;0.60;0.60;;;21.90;58.80;;;;;;4977740;28;20026;-78
2022/05/26 15:22:16;;;;;;;0.73;0.73;;;;;;;;;;4987118;28;20026;-78
2022/05/26 15:24:43;;;;;;;0.68;0.68;;;;;;;;;;4986667;28;20035;-78
2022/05/26 15:27:11;;;;;;;1.33;1.23;;;;;;;;;;4987740;28;20033;-78